Time;durP1;ratioP1;P1;durP2;ratioP2;P2;SDS_P1;SDS_P2;PMS_P1;PMS_P2;Temp;Humidity;BMP_temperature;BMP_pressure;BME280_temperature;BME280_humidity;BME280_pressure;Samples;Min_cycle;Max_cycle;Signal;HPM_P1;HPM_P2
2022/11/25 00:00:20;;;;;;;19.43;4.63;;;;;;;7.85;100.00;100784.72;4989990;28;20136;-86
2022/11/25 00:02:49;;;;;;;17.63;4.00;;;;;;;7.90;100.00;100781.44;4971760;28;20038;-86
2022/11/25 00:05:14;;;;;;;23.00;4.87;;;;;;;7.83;100.00;100758.97;4989114;28;20573;-86
2022/11/25 00:07:39;;;;;;;15.90;4.20;;;;;;;7.84;100.00;100766.84;4990739;28;20073;-87
2022/11/25 00:10:05;;;;;;;17.90;4.50;;;;;;;7.97;100.00;100781.47;4989165;28;20049;-86
2022/11/25 00:12:31;;;;;;;18.23;4.33;;;;;;;8.01;100.00;100775.50;4989976;28;20033;-86
2022/11/25 00:14:56;;;;;;;19.60;4.30;;;;;;;8.02;100.00;100762.84;4990320;28;20048;-89
2022/11/25 00:17:22;;;;;;;15.80;3.97;;;;;;;7.99;100.00;100757.84;4989547;28;20040;-86
2022/11/25 00:19:47;;;;;;;18.30;4.30;;;;;;;8.02;100.00;100752.03;4971879;28;20104;-87
2022/11/25 00:22:14;;;;;;;19.70;4.80;;;;;;;8.00;100.00;100763.03;4990830;28;20139;-86
2022/11/25 00:24:39;;;;;;;17.67;4.50;;;;;;;8.04;100.00;100750.81;4989847;28;20127;-87
2022/11/25 00:27:05;;;;;;;19.83;4.30;;;;;;;8.18;100.00;100765.22;4989841;28;20116;-86
2022/11/25 00:29:30;;;;;;;16.37;4.20;;;;;;;8.16;100.00;100763.75;4989949;28;20041;-86
2022/11/25 00:31:56;;;;;;;15.23;4.13;;;;;;;8.17;100.00;100743.84;4990221;28;20042;-87
2022/11/25 00:34:21;;;;;;;15.73;4.40;;;;;;;8.26;100.00;100756.97;4991069;28;20030;-86
2022/11/25 00:36:47;;;;;;;18.27;4.07;;;;;;;8.38;100.00;100756.44;4987735;28;20053;-86
2022/11/25 00:39:15;;;;;;;18.67;4.00;;;;;;;8.34;100.00;100738.97;4989191;28;20110;-86
2022/11/25 00:44:34;;;;;;;;;;;;;;;8.57;100.00;100771.91;4990052;28;20961;-85
2022/11/25 00:47:19;;;;;;;17.85;4.57;;;;;;;8.76;100.00;100772.22;4990261;28;19921;-87
2022/11/25 00:49:51;;;;;;;20.20;4.25;;;;;;;8.73;100.00;100745.59;4988638;28;20734;-88
2022/11/25 00:52:19;;;;;;;16.27;3.87;;;;;;;8.88;100.00;100759.78;4989324;28;20613;-86
2022/11/25 00:54:46;;;;;;;19.33;4.07;;;;;;;8.90;100.00;100737.97;4985132;28;20030;-88
2022/11/25 00:57:12;;;;;;;20.47;4.30;;;;;;;8.97;100.00;100738.00;4989834;28;20034;-86
2022/11/25 00:59:37;;;;;;;19.70;4.23;;;;;;;9.13;100.00;100753.81;5003974;28;20055;-88
2022/11/25 01:02:03;;;;;;;17.33;4.10;;;;;;;9.07;100.00;100744.66;4989266;28;20045;-85
2022/11/25 01:04:28;;;;;;;17.80;3.93;;;;;;;9.11;100.00;100745.94;4989121;28;20033;-87
2022/11/25 01:06:55;;;;;;;19.77;4.20;;;;;;;9.26;100.00;100761.13;4989465;28;20379;-85
2022/11/25 01:09:21;;;;;;;20.80;4.30;;;;;;;9.12;100.00;100735.94;4989609;28;20076;-87
2022/11/25 01:11:50;;;;;;;15.63;3.60;;;;;;;9.13;100.00;100743.03;4989189;28;20955;-86
2022/11/25 01:14:15;;;;;;;19.77;4.07;;;;;;;9.20;100.00;100737.63;4987619;28;20038;-87
2022/11/25 01:16:41;;;;;;;18.27;4.17;;;;;;;9.22;100.00;100746.34;4989085;28;20097;-85
2022/11/25 01:19:07;;;;;;;16.27;4.60;;;;;;;9.20;100.00;100746.56;4990180;28;20041;-89
2022/11/25 01:21:33;;;;;;;16.00;4.10;;;;;;;9.18;100.00;100736.97;4988551;28;20438;-88
2022/11/25 01:24:00;;;;;;;18.87;4.20;;;;;;;9.29;100.00;100750.75;4977162;28;21910;-88
2022/11/25 01:26:27;;;;;;;16.00;4.00;;;;;;;9.25;100.00;100746.78;4988473;28;20039;-88
2022/11/25 01:28:55;;;;;;;17.73;3.90;;;;;;;9.20;100.00;100743.84;4988317;28;20038;-87
2022/11/25 01:31:24;;;;;;;14.87;4.13;;;;;;;9.20;100.00;100743.84;4987835;28;20111;-87
2022/11/25 01:33:55;;;;;;;19.67;4.47;;;;;;;9.38;100.00;100766.75;4986513;28;20084;-89
2022/11/25 01:36:21;;;;;;;21.07;5.03;;;;;;;9.26;100.00;100751.16;4989309;28;20118;-89
2022/11/25 01:38:52;;;;;;;16.27;4.20;;;;;;;9.34;100.00;100760.94;4987260;28;20041;-86
2022/11/25 01:41:18;;;;;;;17.13;4.40;;;;;;;9.25;100.00;100751.38;5002920;28;20030;-88
2022/11/25 01:44:01;;;;;;;16.37;3.80;;;;;;;9.35;100.00;100761.78;4988261;28;20030;-88
2022/11/25 01:46:33;;;;;;;18.33;4.20;;;;;;;9.37;100.00;100765.09;4988619;28;20041;-88
2022/11/25 01:49:02;;;;;;;18.00;4.30;;;;;;;9.40;100.00;100780.94;4989409;28;20034;-86
2022/11/25 01:51:46;;;;;;;18.60;4.70;;;;;;;9.45;100.00;100779.28;4988132;28;20120;-86
2022/11/25 01:54:16;;;;;;;15.00;3.88;;;;;;;9.48;100.00;100775.31;4991812;28;20336;-90
2022/11/25 01:56:49;;;;;;;15.90;3.87;;;;;;;9.41;100.00;100769.03;4997947;28;20058;-88
2022/11/25 01:59:15;;;;;;;16.40;3.73;;;;;;;9.48;100.00;100786.13;4992785;28;20562;-88
2022/11/25 02:01:40;;;;;;;17.63;3.80;;;;;;;9.50;100.00;100785.94;4991817;28;20034;-88
2022/11/25 02:04:07;;;;;;;12.90;3.40;;;;;;;9.60;100.00;100786.34;4992447;28;20121;-90
2022/11/25 02:06:45;;;;;;;14.47;3.60;;;;;;;9.61;100.00;100788.88;4992225;28;20030;-88
2022/11/25 02:09:13;;;;;;;14.47;4.00;;;;;;;9.50;100.00;100780.53;4991979;28;21015;-89
2022/11/25 02:11:42;;;;;;;18.53;4.67;;;;;;;9.59;100.00;100807.16;4990572;28;20463;-88
2022/11/25 02:14:09;;;;;;;19.90;5.10;;;;;;;9.62;100.00;100811.31;4990664;28;20172;-90
2022/11/25 02:16:37;;;;;;;16.20;4.30;;;;;;;9.59;100.00;100796.34;4992343;28;20037;-90
2022/11/25 02:19:02;;;;;;;18.17;4.40;;;;;;;9.68;100.00;100805.06;4992386;28;20046;-89
2022/11/25 02:21:44;;;;;;;16.33;4.30;;;;;;;9.75;100.00;100824.03;4993083;28;20037;-90
2022/11/25 02:24:31;;;;;;;18.53;4.50;;;;;;;9.76;100.00;100829.25;4992173;28;20245;-88
2022/11/25 02:26:56;;;;;;;14.57;3.80;;;;;;;9.72;100.00;100830.66;4990459;28;20029;-88
2022/11/25 02:29:22;;;;;;;16.40;3.20;;;;;;;9.53;100.00;100802.56;4991712;28;20137;-89
2022/11/25 02:31:50;;;;;;;14.80;3.33;;;;;;;9.60;100.00;100818.78;4989551;28;20061;-89
2022/11/25 02:34:15;;;;;;;13.27;3.10;;;;;;;9.64;100.00;100825.47;4990389;28;20038;-87
2022/11/25 02:36:48;;;;;;;15.40;3.43;;;;;;;9.50;100.00;100821.91;4990448;28;20034;-87
2022/11/25 02:39:14;;;;;;;17.27;3.63;;;;;;;9.38;100.00;100820.84;4996705;28;20056;-87
2022/11/25 02:41:44;;;;;;;16.27;3.80;;;;;;;9.47;100.00;100830.44;4991163;28;20045;-87
2022/11/25 02:44:09;;;;;;;10.27;2.93;;;;;;;9.31;100.00;100825.41;4992204;28;20084;-88
2022/11/25 02:46:35;;;;;;;12.40;3.00;;;;;;;9.23;100.00;100824.56;4973904;28;20038;-88
2022/11/25 02:49:01;;;;;;;14.93;3.30;;;;;;;9.26;100.00;100834.13;4989224;28;20484;-89
2022/11/25 02:51:29;;;;;;;13.83;3.47;;;;;;;9.12;100.00;100819.72;4987475;28;20053;-89
2022/11/25 02:53:55;;;;;;;15.63;3.53;;;;;;;9.04;100.00;100830.72;4991088;28;20034;-88
2022/11/25 02:56:23;;;;;;;14.47;3.40;;;;;;;9.01;100.00;100831.97;4992318;28;20115;-86
2022/11/25 02:58:48;;;;;;;14.47;3.23;;;;;;;8.86;100.00;100829.41;4990759;28;20069;-87
2022/11/25 03:01:14;;;;;;;13.03;3.10;;;;;;;8.95;100.00;100844.41;4991702;28;20183;-88
2022/11/25 03:03:39;;;;;;;13.73;3.30;;;;;;;8.90;100.00;100835.25;4990648;28;20156;-88
2022/11/25 03:06:05;;;;;;;12.60;3.00;;;;;;;8.80;100.00;100814.00;4990387;28;20033;-88
2022/11/25 03:08:30;;;;;;;15.40;4.43;;;;;;;8.75;100.00;100811.06;4991081;28;20076;-87
2022/11/25 03:10:55;;;;;;;14.20;3.80;;;;;;;8.68;100.00;100802.09;4991479;28;20099;-88
2022/11/25 03:13:21;;;;;;;17.57;3.93;;;;;;;8.57;100.00;100749.50;4992251;28;20053;-90
2022/11/25 03:15:47;;;;;;;15.20;3.63;;;;;;;8.53;100.00;100740.13;4990228;28;20498;-89
2022/11/25 03:18:13;;;;;;;15.63;3.83;;;;;;;8.56;100.00;100754.03;4991133;28;20068;-88
2022/11/25 03:20:38;;;;;;;14.13;3.30;;;;;;;8.58;100.00;100772.75;5005442;28;20042;-90
2022/11/25 03:23:04;;;;;;;13.33;3.40;;;;;;;8.43;100.00;100770.16;4989200;28;20041;-90
2022/11/25 03:25:30;;;;;;;13.63;3.30;;;;;;;8.46;100.00;100813.00;4990610;28;20121;-89
2022/11/25 03:27:55;;;;;;;14.40;3.40;;;;;;;8.27;100.00;100812.63;4991157;28;20035;-91
2022/11/25 03:30:23;;;;;;;13.60;3.57;;;;;;;8.27;100.00;100825.31;4988888;28;20041;-90
2022/11/25 03:32:49;;;;;;;15.13;3.83;;;;;;;8.23;100.00;100822.16;4990036;28;20061;-89
2022/11/25 03:35:15;;;;;;;14.03;3.07;;;;;;;8.31;100.00;100826.59;4991482;28;20100;-89
2022/11/25 03:37:41;;;;;;;15.30;3.47;;;;;;;8.17;100.00;100798.63;4995967;28;20128;-89
2022/11/25 03:40:08;;;;;;;14.70;3.57;;;;;;;8.19;100.00;100812.78;4989452;28;20092;-90
2022/11/25 03:42:34;;;;;;;16.63;3.73;;;;;;;8.24;100.00;100804.94;4979425;28;20123;-89
2022/11/25 03:45:00;;;;;;;13.33;4.43;;;;;;;8.30;100.00;100826.78;4991161;28;20467;-89
2022/11/25 03:47:25;;;;;;;18.77;4.40;;;;;;;8.26;100.00;100846.06;4990943;28;20034;-90
2022/11/25 03:49:51;;;;;;;19.37;6.73;;;;;;;8.24;100.00;100845.44;4990445;28;20665;-89
2022/11/25 03:52:16;;;;;;;18.60;5.33;;;;;;;8.20;100.00;100843.31;4990684;28;20050;-86
2022/11/25 03:54:42;;;;;;;21.63;7.50;;;;;;;8.21;100.00;100848.50;4995687;28;20026;-87
2022/11/25 03:57:07;;;;;;;18.13;6.13;;;;;;;8.20;100.00;100846.84;4991438;28;20062;-87
2022/11/25 03:59:33;;;;;;;16.03;4.90;;;;;;;8.23;100.00;100846.44;4988967;28;20034;-87
2022/11/25 04:01:58;;;;;;;15.50;3.70;;;;;;;8.14;100.00;100844.91;4990122;28;20493;-87
2022/11/25 04:04:24;;;;;;;9.97;2.80;;;;;;;8.06;100.00;100832.41;4990138;28;20034;-87
2022/11/25 04:06:49;;;;;;;11.60;3.37;;;;;;;8.13;100.00;100837.84;4990746;28;20056;-87
2022/11/25 04:09:14;;;;;;;9.47;2.77;;;;;;;8.11;100.00;100851.53;4991230;28;20042;-88
2022/11/25 04:14:25;;;;;;;12.95;3.05;;;;;;;8.09;100.00;100847.38;4989289;28;20532;-88
2022/11/25 04:16:50;;;;;;;11.63;2.90;;;;;;;8.04;100.00;100857.94;4989630;28;20042;-88
2022/11/25 04:19:15;;;;;;;11.60;3.07;;;;;;;8.07;100.00;100871.03;4988749;28;20037;-88
2022/11/25 04:21:41;;;;;;;11.33;2.90;;;;;;;7.96;100.00;100858.06;4989841;28;20115;-88
2022/11/25 04:24:07;;;;;;;10.37;3.33;;;;;;;8.00;100.00;100875.53;4989375;28;20050;-87
2022/11/25 04:26:32;;;;;;;12.43;3.30;;;;;;;7.90;100.00;100870.44;4987451;28;20042;-89
2022/11/25 04:28:58;;;;;;;12.30;4.03;;;;;;;7.94;100.00;100882.53;4990167;28;20095;-87
2022/11/25 04:31:23;;;;;;;9.30;2.80;;;;;;;7.95;100.00;100884.19;4994475;28;20046;-88
2022/11/25 04:33:48;;;;;;;9.70;2.73;;;;;;;8.05;100.00;100900.06;4990191;28;20683;-88
2022/11/25 04:36:14;;;;;;;10.90;3.37;;;;;;;7.99;100.00;100898.16;4989988;28;20042;-87
2022/11/25 04:38:39;;;;;;;14.07;5.20;;;;;;;7.92;100.00;100890.81;4990914;28;20037;-87
2022/11/25 04:41:04;;;;;;;12.17;4.27;;;;;;;8.00;100.00;100913.31;4987178;28;20048;-88
2022/11/25 04:43:30;;;;;;;14.10;5.07;;;;;;;7.99;100.00;100909.78;4989687;28;20041;-86
2022/11/25 04:45:56;;;;;;;11.50;4.67;;;;;;;8.04;100.00;100928.91;4987572;28;20149;-87
2022/11/25 04:48:22;;;;;;;12.77;4.90;;;;;;;7.93;100.00;100914.06;4988935;28;21316;-86
2022/11/25 04:50:50;;;;;;;12.23;4.97;;;;;;;7.92;100.00;100915.09;4988792;28;20058;-86
2022/11/25 04:53:15;;;;;;;12.50;5.23;;;;;;;8.01;100.00;100931.16;4990858;28;20060;-89
2022/11/25 04:55:41;;;;;;;11.50;4.87;;;;;;;7.84;100.00;100917.91;4989911;28;20513;-88
2022/11/25 04:58:09;;;;;;;9.57;4.43;;;;;;;7.81;100.00;100909.41;4990397;28;20037;-87
2022/11/25 05:00:34;;;;;;;14.20;3.93;;;;;;;7.81;100.00;100909.41;4988288;28;20037;-90
2022/11/25 05:03:00;;;;;;;7.93;2.93;;;;;;;7.77;100.00;100901.66;4989675;28;20044;-88
2022/11/25 05:05:25;;;;;;;6.63;2.63;;;;;;;7.86;100.00;100923.97;5003795;28;20125;-88
2022/11/25 05:07:51;;;;;;;8.13;2.30;;;;;;;7.88;100.00;100927.31;4989725;28;20040;-89
2022/11/25 05:10:17;;;;;;;6.77;2.20;;;;;;;7.85;100.00;100933.09;4990333;28;20045;-91
2022/11/25 05:12:42;;;;;;;9.33;3.20;;;;;;;7.79;100.00;100923.06;4988983;28;20518;-90
2022/11/25 05:15:08;;;;;;;6.67;2.40;;;;;;;7.77;100.00;100931.34;4989047;28;20498;-89
2022/11/25 05:17:34;;;;;;;6.67;2.63;;;;;;;7.88;100.00;100951.59;4987549;28;20076;-89
2022/11/25 05:19:59;;;;;;;8.27;2.50;;;;;;;7.83;100.00;100951.31;4986679;28;20160;-88
2022/11/25 05:22:30;;;;;;;7.30;2.33;;;;;;;7.64;100.00;100924.97;4989588;28;20378;-89
2022/11/25 05:24:56;;;;;;;7.97;2.47;;;;;;;7.73;100.00;100942.72;5003008;28;20104;-90
2022/11/25 05:27:22;;;;;;;9.50;2.77;;;;;;;7.66;100.00;100942.63;4987834;28;20034;-87
2022/11/25 05:29:48;;;;;;;9.17;2.40;;;;;;;7.55;100.00;100935.06;4989046;28;20048;-86
2022/11/25 05:32:14;;;;;;;8.47;2.83;;;;;;;7.57;100.00;100914.94;4988937;28;20636;-86
2022/11/25 05:34:40;;;;;;;7.57;2.83;;;;;;;7.62;100.00;100927.03;4988267;28;20124;-87
2022/11/25 05:37:06;;;;;;;8.63;2.67;;;;;;;7.70;100.00;100948.50;4986887;28;20481;-86
2022/11/25 05:39:32;;;;;;;9.57;3.10;;;;;;;7.67;100.00;100954.25;4988914;28;20042;-86
2022/11/25 05:41:57;;;;;;;9.40;3.23;;;;;;;7.65;100.00;100946.34;4988504;28;20050;-86
2022/11/25 05:44:26;;;;;;;9.57;3.07;;;;;;;7.72;100.00;100976.09;4989978;28;20068;-87
2022/11/25 05:46:51;;;;;;;10.30;3.77;;;;;;;7.67;100.00;100959.63;4987991;28;20038;-88
2022/11/25 05:49:18;;;;;;;12.97;4.17;;;;;;;7.44;100.00;100934.50;5003802;28;20029;-87
2022/11/25 05:51:43;;;;;;;8.23;3.37;;;;;;;7.68;100.00;100964.00;5010619;28;20046;-87
2022/11/25 05:54:09;;;;;;;11.57;4.10;;;;;;;7.58;100.00;100948.16;5005385;28;20041;-87
2022/11/25 05:56:34;;;;;;;12.40;4.50;;;;;;;7.48;100.00;100945.75;4969509;28;20038;-86
2022/11/25 05:59:00;;;;;;;10.40;4.10;;;;;;;7.52;100.00;100959.66;4987615;28;21426;-86
2022/11/25 06:01:26;;;;;;;14.93;5.17;;;;;;;7.55;100.00;100956.63;4988046;28;20482;-89
2022/11/25 06:03:51;;;;;;;12.27;5.50;;;;;;;7.36;100.00;100947.25;5003338;28;20046;-87
2022/11/25 06:06:17;;;;;;;14.23;5.33;;;;;;;7.44;100.00;100976.81;4987840;28;20065;-87
2022/11/25 06:08:43;;;;;;;11.43;5.23;;;;;;;7.34;100.00;100968.16;4988579;28;20034;-86
2022/11/25 06:11:14;;;;;;;11.80;4.87;;;;;;;7.39;100.00;100974.66;4987708;28;20085;-86
2022/11/25 06:13:41;;;;;;;16.37;5.77;;;;;;;7.54;100.00;100988.13;4987105;28;20039;-86
2022/11/25 06:16:09;;;;;;;11.17;4.30;;;;;;;7.40;100.00;100970.13;4986242;28;20292;-88
2022/11/25 06:18:36;;;;;;;13.43;4.67;;;;;;;7.35;100.00;100962.59;4988713;28;20536;-88
2022/11/25 06:21:02;;;;;;;13.60;5.50;;;;;;;7.34;100.00;100966.28;4988585;28;20046;-85
2022/11/25 06:23:27;;;;;;;14.30;6.10;;;;;;;7.33;100.00;100974.56;4986762;28;20034;-87
2022/11/25 06:25:52;;;;;;;16.87;6.60;;;;;;;7.31;100.00;100976.63;5003642;28;20038;-87
2022/11/25 06:28:18;;;;;;;16.37;6.33;;;;;;;7.33;100.00;100988.91;4988981;28;20628;-85
2022/11/25 06:30:43;;;;;;;10.27;4.80;;;;;;;7.24;100.00;100980.06;4988828;28;20096;-87
2022/11/25 06:33:08;;;;;;;13.93;5.33;;;;;;;7.31;100.00;100995.50;4988396;28;20493;-86
2022/11/25 06:35:35;;;;;;;15.60;5.40;;;;;;;7.23;100.00;101002.63;4986381;28;20574;-87
2022/11/25 06:38:00;;;;;;;13.93;5.23;;;;;;;7.30;100.00;101007.31;4988090;28;20538;-87
2022/11/25 06:40:26;;;;;;;10.50;4.23;;;;;;;7.33;100.00;101023.94;5004419;28;20124;-86
2022/11/25 06:42:51;;;;;;;11.23;4.57;;;;;;;7.14;100.00;101011.00;4992300;28;20425;-86
2022/11/25 06:45:16;;;;;;;11.97;4.30;;;;;;;7.31;100.00;101033.25;4991658;28;20486;-86
2022/11/25 06:47:42;;;;;;;11.53;4.17;;;;;;;7.31;100.00;101030.53;4992263;28;20095;-88
2022/11/25 06:50:10;;;;;;;13.10;4.90;;;;;;;7.18;100.00;101018.56;4991503;28;20360;-87
2022/11/25 06:52:36;;;;;;;15.23;6.03;;;;;;;7.16;100.00;101019.75;4990790;28;20130;-86
2022/11/25 06:55:01;;;;;;;16.37;6.70;;;;;;;7.06;100.00;101009.25;5005418;28;20121;-85
2022/11/25 06:57:27;;;;;;;15.70;6.43;;;;;;;7.10;100.00;101024.84;4992167;28;20122;-86
2022/11/25 06:59:52;;;;;;;17.63;6.87;;;;;;;7.03;100.00;101012.28;4991178;28;20041;-87
2022/11/25 07:02:18;;;;;;;17.10;7.50;;;;;;;7.00;100.00;101020.75;4992004;28;20042;-85
2022/11/25 07:04:43;;;;;;;17.90;6.90;;;;;;;6.91;100.00;101020.84;4991420;28;20072;-87
2022/11/25 07:07:09;;;;;;;15.57;5.40;;;;;;;6.90;100.00;101023.72;4991673;28;20034;-86
2022/11/25 07:09:34;;;;;;;12.60;5.07;;;;;;;6.91;100.00;101046.94;4991416;28;20050;-86
2022/11/25 07:12:00;;;;;;;17.80;7.17;;;;;;;6.89;100.00;101049.78;4991031;28;20577;-86
2022/11/25 07:14:25;;;;;;;19.17;7.60;;;;;;;6.92;100.00;101045.91;4990658;28;20042;-87
2022/11/25 07:16:50;;;;;;;18.63;8.17;;;;;;;6.83;100.00;101055.94;4990608;28;20042;-86
2022/11/25 07:19:17;;;;;;;18.67;7.73;;;;;;;6.84;100.00;101056.75;4991120;28;20038;-87
2022/11/25 07:21:44;;;;;;;20.67;8.00;;;;;;;6.76;100.00;101042.34;4988311;28;20096;-86
2022/11/25 07:24:15;;;;;;;17.20;7.90;;;;;;;6.80;100.00;101056.31;4991510;28;21365;-87
2022/11/25 07:26:41;;;;;;;17.97;7.90;;;;;;;6.96;100.00;101092.19;4997528;28;20601;-88
2022/11/25 07:29:10;;;;;;;20.23;8.03;;;;;;;6.90;100.00;101080.28;4994719;28;20041;-87
2022/11/25 07:31:38;;;;;;;19.43;8.47;;;;;;;6.79;100.00;101080.72;5000407;28;20382;-87
2022/11/25 07:34:16;;;;;;;21.13;9.37;;;;;;;6.77;100.00;101083.56;5010917;28;20328;-87
2022/11/25 07:36:42;;;;;;;18.57;8.07;;;;;;;6.75;100.00;101077.53;4989538;28;20498;-86
2022/11/25 07:39:16;;;;;;;19.80;9.07;;;;;;;6.75;100.00;101091.84;4988754;28;20052;-87
2022/11/25 07:41:42;;;;;;;19.48;9.02;;;;;;;6.70;100.00;101082.63;4989211;28;20030;-87
2022/11/25 07:44:09;;;;;;;20.00;9.00;;;;;;;6.70;100.00;101104.16;4990871;28;20076;-87
2022/11/25 07:46:53;;;;;;;20.53;8.93;;;;;;;6.81;100.00;101111.81;4987671;28;20079;-86
2022/11/25 07:49:23;;;;;;;16.90;7.00;;;;;;;6.80;100.00;101109.31;4990692;28;20038;-87
2022/11/25 07:51:54;;;;;;;15.30;6.63;;;;;;;6.84;100.00;101119.56;4988269;28;20061;-87
2022/11/25 07:54:21;;;;;;;15.97;6.50;;;;;;;6.87;100.00;101116.50;4989345;28;20084;-87
2022/11/25 07:56:48;;;;;;;15.83;6.07;;;;;;;7.01;100.00;101119.41;4989887;28;21722;-87
2022/11/25 07:59:16;;;;;;;16.13;6.10;;;;;;;7.09;100.00;101128.25;5005259;28;20046;-88
2022/11/25 08:01:42;;;;;;;17.17;6.50;;;;;;;7.13;100.00;101133.31;4990181;28;20029;-87
2022/11/25 08:04:10;;;;;;;16.17;6.80;;;;;;;7.14;100.00;101132.25;4990138;28;20097;-87
2022/11/25 08:06:38;;;;;;;18.30;7.13;;;;;;;7.25;100.00;101161.50;4988612;28;20116;-87
2022/11/25 08:09:05;;;;;;;18.87;6.80;;;;;;;7.17;100.00;101146.22;4989200;28;20117;-87
2022/11/25 08:11:31;;;;;;;18.67;7.27;;;;;;;7.23;100.00;101150.88;4991061;28;20890;-88
2022/11/25 08:13:58;;;;;;;17.30;6.70;;;;;;;7.33;100.00;101165.94;5009840;28;20038;-87
2022/11/25 08:16:26;;;;;;;10.30;4.80;;;;;;;7.40;100.00;101154.25;4995501;28;20393;-87
2022/11/25 08:18:53;;;;;;;12.57;4.90;;;;;;;7.49;100.00;101159.56;4988684;28;20038;-88
2022/11/25 08:21:18;;;;;;;12.00;4.63;;;;;;;7.49;100.00;101146.09;5007030;28;20104;-89
2022/11/25 08:23:48;;;;;;;13.53;4.20;;;;;;;7.51;100.00;101155.69;4994218;28;20038;-89
2022/11/25 08:26:16;;;;;;;12.93;4.27;;;;;;;7.60;100.00;101170.75;4988452;28;20822;-90
2022/11/25 08:28:42;;;;;;;11.27;3.83;;;;;;;7.75;100.00;101169.91;4988427;28;20026;-88
2022/11/25 08:31:11;;;;;;;10.17;3.63;;;;;;;7.75;100.00;101170.78;4972226;28;20042;-89
2022/11/25 08:33:37;;;;;;;11.43;3.70;;;;;;;7.88;100.00;101161.19;4989791;28;20041;-90
2022/11/25 08:36:03;;;;;;;9.03;3.77;;;;;;;7.86;100.00;101164.06;4990010;28;20585;-89
2022/11/25 08:38:29;;;;;;;8.67;3.40;;;;;;;8.00;100.00;101172.38;4988879;28;20061;-90
2022/11/25 08:40:55;;;;;;;11.73;4.03;;;;;;;8.05;100.00;101183.41;4990357;28;21457;-89
2022/11/25 08:43:20;;;;;;;10.93;3.97;;;;;;;8.14;100.00;101192.25;4989495;28;20064;-89
2022/11/25 08:45:49;;;;;;;10.90;3.17;;;;;;;8.14;100.00;101182.28;4987759;28;20069;-89
2022/11/25 08:48:16;;;;;;;10.00;3.93;;;;;;;8.16;100.00;101188.34;4990017;28;20715;-89
2022/11/25 08:51:00;;;;;;;9.47;3.50;;;;;;;8.18;100.00;101178.19;4989164;28;20073;-89
2022/11/25 08:53:25;;;;;;;10.17;3.80;;;;;;;8.30;100.00;101183.97;4989226;28;20026;-87
2022/11/25 08:55:51;;;;;;;6.97;3.43;;;;;;;8.22;100.00;101194.84;4989441;28;20552;-89
2022/11/25 08:58:16;;;;;;;9.83;3.50;;;;;;;8.35;100.00;101202.28;4987872;28;20037;-89
2022/11/25 09:00:43;;;;;;;12.60;3.67;;;;;;;8.42;100.00;101204.03;4991096;28;20137;-89
2022/11/25 09:03:08;;;;;;;9.47;3.40;;;;;;;8.50;100.00;101204.97;4988774;28;20034;-88
2022/11/25 09:05:36;;;;;;;9.67;3.17;;;;;;;8.76;100.00;101212.59;4990141;28;20757;-88
2022/11/25 09:08:03;;;;;;;9.53;3.37;;;;;;;8.86;100.00;101212.25;4986905;28;21768;-88
2022/11/25 09:10:30;;;;;;;9.47;3.30;;;;;;;9.02;100.00;101212.00;4986994;28;20042;-88
2022/11/25 09:12:55;;;;;;;7.33;3.17;;;;;;;9.18;100.00;101224.44;4989465;28;20157;-89
2022/11/25 09:15:20;;;;;;;10.70;3.53;;;;;;;9.18;100.00;101226.28;4989811;28;20581;-88
2022/11/25 09:17:46;;;;;;;12.00;3.50;;;;;;;9.38;100.00;101231.91;4987900;28;20041;-88
2022/11/25 09:20:11;;;;;;;8.10;3.50;;;;;;;9.52;100.00;101239.09;4986125;28;20037;-88
2022/11/25 09:22:37;;;;;;;11.30;3.20;;;;;;;9.66;100.00;101234.63;4988901;28;20038;-89
2022/11/25 09:25:03;;;;;;;8.97;3.47;;;;;;;9.63;100.00;101241.28;4990572;28;20030;-87
2022/11/25 09:27:30;;;;;;;11.20;3.67;;;;;;;9.77;100.00;101233.25;4994299;28;20042;-88
2022/11/25 09:29:55;;;;;;;8.17;3.63;;;;;;;10.07;100.00;101246.59;4990433;28;20044;-87
2022/11/25 09:32:21;;;;;;;9.23;3.20;;;;;;;10.13;100.00;101248.47;4989286;28;20046;-87
2022/11/25 09:34:46;;;;;;;10.30;3.47;;;;;;;10.05;99.66;101259.47;4990199;28;20035;-89
2022/11/25 09:37:11;;;;;;;9.37;3.73;;;;;;;10.28;99.75;101267.31;4993117;28;20084;-88
2022/11/25 09:39:37;;;;;;;10.80;3.40;;;;;;;10.38;97.62;101275.13;4993141;28;20100;-87
2022/11/25 09:48:32;;;;;;;10.10;3.57;;;;;;;10.83;96.40;101280.97;4989943;28;20045;-88
2022/11/25 09:51:23;;;;;;;8.13;3.40;;;;;;;10.93;97.61;101288.69;4988898;28;20046;-87
2022/11/25 09:53:55;;;;;;;11.90;3.60;;;;;;;11.12;94.54;101287.94;4989295;28;20029;-88
2022/11/25 09:56:33;;;;;;;10.07;3.50;;;;;;;11.26;95.26;101294.22;4990565;28;20048;-88
2022/11/25 09:59:11;;;;;;;8.97;3.33;;;;;;;11.42;93.17;101298.44;4990009;28;20471;-89
2022/11/25 10:01:52;;;;;;;10.33;3.10;;;;;;;11.13;92.79;101299.63;4987145;28;20014;-88
2022/11/25 10:04:33;;;;;;;9.60;3.30;;;;;;;11.27;94.70;101301.34;5003842;28;20451;-88
2022/11/25 10:07:02;;;;;;;9.93;3.20;;;;;;;11.24;91.48;101309.03;4993163;28;20457;-88
2022/11/25 10:09:32;;;;;;;8.07;3.00;;;;;;;11.65;88.54;101308.06;4989671;28;20042;-88
2022/11/25 10:12:15;;;;;;;7.20;3.20;;;;;;;11.76;90.40;101312.03;4987800;28;20118;-87
2022/11/25 10:14:48;;;;;;;8.60;2.83;;;;;;;11.69;88.52;101314.72;4992893;28;20032;-89
2022/11/25 10:17:48;;;;;;;9.87;3.30;;;;;;;12.24;88.06;101319.97;5015463;28;20417;-85
2022/11/25 10:20:20;;;;;;;11.40;3.27;;;;;;;12.15;86.43;101322.06;4991246;28;20040;-87
2022/11/25 10:22:49;;;;;;;8.17;3.17;;;;;;;12.11;85.64;101330.84;5002530;28;20033;-87
2022/11/25 10:25:37;;;;;;;8.43;3.60;;;;;;;12.08;86.52;101340.25;4993093;28;20026;-87
2022/11/25 10:28:09;;;;;;;8.67;2.83;;;;;;;11.97;86.70;101333.56;4995073;28;20053;-86
2022/11/25 10:30:41;;;;;;;7.77;2.97;;;;;;;12.01;86.02;101339.44;4993251;28;20053;-86
2022/11/25 10:33:26;;;;;;;9.67;3.00;;;;;;;12.12;86.22;101327.09;4991696;28;20096;-86
2022/11/25 10:35:56;;;;;;;8.87;2.97;;;;;;;12.56;84.31;101351.91;4991294;28;20080;-86
2022/11/25 10:38:54;;;;;;;8.33;3.10;;;;;;;12.86;85.76;101363.09;4994340;28;20026;-87
2022/11/25 10:41:22;;;;;;;9.13;2.90;;;;;;;12.52;83.39;101348.75;4993735;28;21942;-87
2022/11/25 10:43:48;;;;;;;8.67;2.83;;;;;;;12.74;80.66;101359.38;4991004;28;20118;-86
2022/11/25 10:46:43;;;;;;;7.50;2.70;;;;;;;12.75;82.55;101359.16;4992818;28;20129;-88
2022/11/25 10:49:21;;;;;;;9.27;2.87;;;;;;;12.94;83.29;101360.13;4992009;28;20112;-88
2022/11/25 10:51:48;;;;;;;10.60;3.20;;;;;;;12.80;80.11;101353.09;4993954;28;20061;-88
2022/11/25 10:54:27;;;;;;;8.63;2.63;;;;;;;13.30;78.32;101364.19;4973024;28;20429;-89
2022/11/25 10:57:01;;;;;;;8.83;3.10;;;;;;;12.82;79.46;101372.72;4994739;28;20064;-87
2022/11/25 10:59:36;;;;;;;8.63;2.83;;;;;;;12.98;78.87;101372.25;4973942;28;20037;-88
2022/11/25 11:02:37;;;;;;;13.40;3.20;;;;;;;12.99;80.96;101370.41;4990705;28;20454;-86
2022/11/25 11:05:02;;;;;;;10.57;2.77;;;;;;;12.87;78.39;101375.66;5009078;28;20053;-86
2022/11/25 11:07:34;;;;;;;9.70;2.83;;;;;;;12.89;76.83;101381.72;5003487;28;20064;-86
2022/11/25 11:10:25;;;;;;;9.63;2.90;;;;;;;13.06;78.36;101373.09;4991644;28;20030;-87
2022/11/25 11:13:00;;;;;;;8.50;2.87;;;;;;;12.80;77.92;101383.00;4990162;28;20133;-86
2022/11/25 11:15:30;;;;;;;8.13;2.90;;;;;;;12.38;77.21;101385.19;4990676;28;20037;-87
2022/11/25 11:17:59;;;;;;;7.93;2.73;;;;;;;12.14;76.66;101382.03;4995154;28;20129;-86
2022/11/25 11:20:30;;;;;;;8.67;3.00;;;;;;;12.11;80.04;101394.16;5003270;28;20119;-90
2022/11/25 11:23:12;;;;;;;10.27;2.67;;;;;;;12.01;79.87;101404.63;4990334;28;20112;-89
2022/11/25 11:25:41;;;;;;;10.17;3.10;;;;;;;11.96;80.22;101397.06;4992243;28;20105;-88
2022/11/25 11:28:43;;;;;;;10.17;2.73;;;;;;;12.22;79.62;101403.56;4991745;28;20084;-90
2022/11/25 11:31:18;;;;;;;11.43;3.20;;;;;;;11.84;81.48;101398.69;4982113;28;20049;-90
2022/11/25 11:33:51;;;;;;;8.23;2.60;;;;;;;11.81;79.64;101409.97;4992881;28;20053;-91
2022/11/25 11:36:54;;;;;;;9.53;3.07;;;;;;;11.71;81.52;101409.53;4991968;28;20042;-91